createdAt,value
2023-05-05T00:01:35.776Z,1.85
2023-05-05T00:04:03.029Z,2.05
2023-05-05T00:06:31.368Z,1.65
2023-05-05T00:08:58.494Z,1.75
2023-05-05T00:11:26.118Z,1.63
2023-05-05T00:13:53.152Z,1.42
2023-05-05T00:16:20.389Z,1.80
2023-05-05T00:18:48.103Z,1.98
2023-05-05T00:21:15.780Z,1.70
2023-05-05T00:23:42.862Z,1.90
2023-05-05T00:26:09.923Z,1.67
2023-05-05T00:28:36.976Z,1.90
2023-05-05T00:31:04.237Z,1.45
2023-05-05T00:33:31.539Z,1.50
2023-05-05T00:35:58.651Z,1.65
2023-05-05T00:38:25.733Z,1.80
2023-05-05T00:40:52.712Z,1.50
2023-05-05T00:43:19.784Z,1.40
2023-05-05T00:45:48.108Z,1.30
2023-05-05T00:48:17.067Z,1.45
2023-05-05T00:50:45.205Z,1.80
2023-05-05T00:53:13.345Z,1.52
2023-05-05T00:55:40.758Z,1.42
2023-05-05T00:58:08.342Z,1.67
2023-05-05T01:00:35.403Z,1.70
2023-05-05T01:03:03.348Z,1.52
2023-05-05T01:06:22.166Z,1.70
2023-05-05T01:09:22.742Z,1.83
2023-05-05T01:12:20.624Z,1.33
2023-05-05T01:15:05.206Z,1.40
2023-05-05T01:17:41.719Z,1.55
2023-05-05T01:20:32.177Z,1.77
2023-05-05T01:23:05.093Z,1.65
2023-05-05T01:26:05.628Z,1.50
2023-05-05T01:29:29.335Z,1.40
2023-05-05T01:32:13.263Z,1.35
2023-05-05T01:34:58.397Z,1.63
2023-05-05T01:37:50.939Z,1.55
2023-05-05T01:40:26.423Z,1.52
2023-05-05T01:42:55.173Z,1.67
2023-05-05T01:45:29.453Z,1.60
2023-05-05T01:47:59.185Z,1.77
2023-05-05T01:50:28.864Z,1.63
2023-05-05T01:52:57.978Z,1.60
2023-05-05T01:55:28.295Z,1.63
2023-05-05T01:57:58.779Z,1.60
2023-05-05T02:00:27.488Z,1.33
2023-05-05T02:02:59.903Z,1.70
2023-05-05T02:05:27.797Z,1.38
2023-05-05T02:07:59.206Z,1.90
2023-05-05T02:10:28.229Z,1.50
2023-05-05T02:12:55.948Z,1.60
2023-05-05T02:15:25.428Z,1.55
2023-05-05T02:17:53.288Z,1.40
2023-05-05T02:20:22.319Z,1.58
2023-05-05T02:22:49.890Z,1.52
2023-05-05T02:25:20.129Z,1.70
2023-05-05T02:27:48.746Z,1.38
2023-05-05T02:30:20.042Z,1.42
2023-05-05T02:33:06.239Z,1.40
2023-05-05T02:35:39.793Z,1.27
2023-05-05T02:38:14.772Z,1.50
2023-05-05T02:40:45.257Z,1.60
2023-05-05T02:43:18.606Z,1.88
2023-05-05T02:45:45.888Z,1.40
2023-05-05T02:48:13.190Z,1.35
2023-05-05T02:50:40.458Z,1.17
2023-05-05T02:53:07.919Z,1.17
2023-05-05T02:55:45.893Z,1.40
2023-05-05T02:58:35.121Z,1.55
2023-05-05T03:01:28.422Z,1.23
2023-05-05T03:04:10.309Z,1.20
2023-05-05T03:09:18.214Z,1.00
2023-05-05T03:11:51.125Z,1.20
2023-05-05T03:14:21.466Z,1.25
2023-05-05T03:16:49.454Z,1.23
2023-05-05T03:19:20.052Z,1.38
2023-05-05T03:21:48.476Z,1.17
2023-05-05T03:24:20.703Z,1.13
2023-05-05T03:26:49.782Z,1.58
2023-05-05T03:29:17.217Z,1.20
2023-05-05T03:31:44.360Z,1.20
2023-05-05T03:34:11.503Z,1.20
2023-05-05T03:36:39.594Z,1.77
2023-05-05T03:39:06.674Z,2.00
2023-05-05T03:41:33.982Z,1.98
2023-05-05T03:44:00.997Z,1.52
2023-05-05T03:46:28.086Z,1.50
2023-05-05T03:48:57.254Z,1.50
2023-05-05T03:51:25.336Z,1.50
2023-05-05T03:53:52.400Z,1.80
2023-05-05T03:56:19.479Z,1.65
2023-05-05T03:58:46.580Z,1.70
2023-05-05T04:01:13.709Z,1.70
2023-05-05T04:03:41.065Z,1.60
2023-05-05T04:06:08.374Z,1.50
2023-05-05T04:08:36.226Z,1.50
2023-05-05T04:11:03.592Z,1.50
2023-05-05T04:13:30.680Z,1.73
2023-05-05T04:15:59.068Z,1.40
2023-05-05T04:18:26.456Z,1.52
2023-05-05T04:20:53.517Z,1.50
2023-05-05T04:23:20.564Z,1.65
2023-05-05T04:25:48.227Z,1.83
2023-05-05T04:28:15.350Z,1.70
2023-05-05T04:30:42.629Z,2.08
2023-05-05T04:33:09.666Z,2.13
2023-05-05T04:35:36.704Z,2.13
2023-05-05T04:38:04.027Z,2.17
2023-05-05T04:40:31.348Z,1.70
2023-05-05T04:42:58.478Z,1.95
2023-05-05T04:45:25.619Z,1.50
2023-05-05T04:47:52.750Z,1.60
2023-05-05T04:50:20.439Z,1.48
2023-05-05T04:52:47.529Z,1.90
2023-05-05T04:55:14.686Z,1.25
2023-05-05T04:57:41.745Z,1.38
2023-05-05T05:00:09.960Z,1.50
2023-05-05T05:02:37.909Z,1.60
2023-05-05T05:05:05.570Z,1.70
2023-05-05T05:07:32.658Z,1.80
2023-05-05T05:09:59.853Z,1.85
2023-05-05T05:12:26.894Z,2.10
2023-05-05T05:14:54.055Z,2.20
2023-05-05T05:17:22.554Z,1.80
2023-05-05T05:19:49.664Z,1.70
2023-05-05T05:22:16.836Z,2.03
2023-05-05T05:24:43.955Z,2.30
2023-05-05T05:27:11.517Z,1.90
2023-05-05T05:29:38.803Z,2.03
2023-05-05T05:32:06.142Z,1.73
2023-05-05T05:34:33.228Z,2.10
2023-05-05T05:37:00.304Z,1.95
2023-05-05T05:39:27.383Z,2.08
2023-05-05T05:41:54.432Z,2.15
2023-05-05T05:44:21.468Z,2.10
2023-05-05T05:46:48.532Z,2.40
2023-05-05T05:49:16.462Z,2.05
2023-05-05T05:51:43.510Z,2.30
2023-05-05T05:54:10.950Z,2.38
2023-05-05T05:56:38.126Z,2.58
2023-05-05T05:59:08.097Z,2.47
2023-05-05T06:01:35.625Z,2.30
2023-05-05T06:04:02.795Z,2.38
2023-05-05T06:06:30.214Z,2.22
2023-05-05T06:08:57.380Z,2.58
2023-05-05T06:11:24.492Z,2.47
2023-05-05T06:13:51.626Z,2.10
2023-05-05T06:16:18.724Z,2.28
2023-05-05T06:18:45.771Z,2.40
2023-05-05T06:21:13.484Z,2.60
2023-05-05T06:23:40.615Z,2.20
2023-05-05T06:26:07.759Z,2.33
2023-05-05T06:28:34.829Z,2.30
2023-05-05T06:31:02.071Z,2.38
2023-05-05T06:33:29.171Z,2.53
2023-05-05T06:35:56.255Z,2.13
2023-05-05T06:38:23.374Z,2.60
2023-05-05T06:40:50.670Z,2.58
2023-05-05T06:43:18.103Z,2.45
2023-05-05T06:45:46.082Z,2.38
2023-05-05T06:48:13.312Z,2.70
2023-05-05T06:50:40.363Z,2.42
2023-05-05T06:53:07.484Z,2.60
2023-05-05T06:55:34.555Z,2.95
2023-05-05T06:58:01.893Z,2.47
2023-05-05T07:00:29.255Z,3.03
2023-05-05T07:02:56.340Z,2.70
2023-05-05T07:05:23.444Z,2.55
2023-05-05T07:07:55.280Z,2.70
2023-05-05T07:10:24.051Z,2.45
2023-05-05T07:12:52.565Z,2.88
2023-05-05T07:15:28.861Z,2.47
2023-05-05T07:17:57.438Z,2.33
2023-05-05T07:20:25.245Z,2.40
2023-05-05T07:22:52.426Z,2.00
2023-05-05T07:25:19.716Z,2.50
2023-05-05T07:27:46.980Z,2.40
2023-05-05T07:30:18.123Z,2.00
2023-05-05T07:35:13.623Z,2.03
2023-05-05T07:37:40.815Z,2.15
2023-05-05T07:40:08.933Z,2.42
2023-05-05T07:42:36.325Z,2.35
2023-05-05T07:45:04.493Z,2.05
2023-05-05T07:47:31.813Z,2.10
2023-05-05T07:49:59.117Z,2.10
2023-05-05T07:52:43.365Z,2.05
2023-05-05T07:55:13.434Z,2.00
2023-05-05T07:57:40.641Z,2.20
2023-05-05T08:00:09.651Z,1.88
2023-05-05T08:02:36.991Z,1.90
2023-05-05T08:05:04.666Z,2.00
2023-05-05T08:07:31.864Z,1.98
2023-05-05T08:09:59.023Z,2.30
2023-05-05T08:12:26.077Z,2.05
2023-05-05T08:14:53.124Z,1.75
2023-05-05T08:17:20.482Z,2.00
2023-05-05T08:19:47.557Z,2.15
2023-05-05T08:22:14.701Z,2.00
2023-05-05T08:24:41.767Z,1.83
2023-05-05T08:27:08.781Z,1.75
2023-05-05T08:29:35.950Z,2.10
2023-05-05T08:32:03.050Z,1.85
2023-05-05T08:34:30.129Z,2.08
2023-05-05T08:36:57.153Z,2.10
2023-05-05T08:39:24.215Z,1.50
2023-05-05T08:41:51.286Z,1.65
2023-05-05T08:44:18.309Z,2.00
2023-05-05T08:46:46.038Z,1.70
2023-05-05T08:49:16.530Z,1.73
2023-05-05T08:51:45.556Z,1.77
2023-05-05T08:54:19.588Z,1.60
2023-05-05T08:56:50.904Z,1.45
2023-05-05T08:59:19.194Z,1.63
2023-05-05T09:01:47.204Z,1.70
2023-05-05T09:04:14.487Z,1.20
2023-05-05T09:06:41.730Z,1.33
2023-05-05T09:09:09.517Z,1.80
2023-05-05T09:11:37.745Z,1.70
2023-05-05T09:14:04.812Z,1.60
2023-05-05T09:16:31.886Z,1.58
2023-05-05T09:19:05.916Z,1.48
2023-05-05T09:21:34.640Z,1.48
2023-05-05T09:24:11.279Z,1.52
2023-05-05T09:26:46.261Z,1.60
2023-05-05T09:29:21.578Z,2.00
2023-05-05T09:32:08.872Z,1.70
2023-05-05T09:34:37.210Z,1.33
2023-05-05T09:37:04.550Z,1.80
2023-05-05T09:39:31.926Z,1.60
2023-05-05T09:41:59.008Z,1.60
2023-05-05T09:44:37.949Z,1.73
2023-05-05T09:47:07.378Z,1.50
2023-05-05T09:49:39.483Z,1.40
2023-05-05T09:52:15.586Z,1.67
2023-05-05T09:54:45.718Z,1.50
2023-05-05T09:57:30.717Z,1.60
2023-05-05T10:00:00.253Z,1.60
2023-05-05T10:02:46.185Z,1.70
2023-05-05T10:05:18.306Z,1.63
2023-05-05T10:07:47.900Z,1.48
2023-05-05T10:10:17.405Z,1.60
2023-05-05T10:12:47.933Z,1.80
2023-05-05T10:15:16.686Z,1.70
2023-05-05T10:18:05.097Z,1.60
2023-05-05T10:20:33.574Z,1.63
2023-05-05T10:23:06.293Z,1.90
2023-05-05T10:25:42.929Z,2.20
2023-05-05T10:28:17.314Z,1.33
2023-05-05T10:30:49.484Z,1.60
2023-05-05T10:35:55.619Z,2.10
2023-05-05T10:38:26.821Z,2.10
2023-05-05T10:40:55.340Z,1.63
2023-05-05T10:43:23.606Z,1.88
2023-05-05T10:45:51.119Z,1.90
2023-05-05T10:48:40.739Z,2.08
2023-05-05T10:51:35.927Z,1.70
2023-05-05T10:54:17.013Z,1.90
2023-05-05T10:56:44.113Z,1.80
2023-05-05T10:59:36.223Z,1.73
2023-05-05T11:02:23.645Z,1.48
2023-05-05T11:05:18.267Z,2.10
2023-05-05T11:07:50.075Z,1.73
2023-05-05T11:10:23.774Z,1.65
2023-05-05T11:13:02.079Z,2.28
2023-05-05T11:15:29.348Z,2.00
2023-05-05T11:18:06.695Z,2.30
2023-05-05T11:20:39.791Z,2.08
2023-05-05T11:23:07.111Z,2.33
2023-05-05T11:25:37.825Z,2.40
2023-05-05T11:28:17.061Z,2.47
2023-05-05T11:30:59.879Z,2.25
2023-05-05T11:33:39.491Z,2.40
2023-05-05T11:36:09.193Z,2.38
2023-05-05T11:39:10.312Z,2.58
2023-05-05T11:42:12.950Z,1.95
2023-05-05T11:44:40.372Z,2.50
2023-05-05T11:47:07.464Z,1.90
2023-05-05T11:49:39.279Z,1.98
2023-05-05T11:52:14.903Z,2.08
2023-05-05T11:54:49.106Z,2.38
2023-05-05T11:57:27.213Z,2.42
2023-05-05T12:00:08.186Z,2.40
2023-05-05T12:02:36.280Z,2.15
2023-05-05T12:05:04.343Z,2.30
2023-05-05T12:07:33.570Z,2.55
2023-05-05T12:10:01.487Z,1.98
2023-05-05T12:12:40.310Z,2.28
2023-05-05T12:15:09.316Z,2.47
2023-05-05T12:17:44.937Z,2.08
2023-05-05T12:20:13.742Z,1.90
2023-05-05T12:22:41.589Z,1.90
2023-05-05T12:25:09.609Z,1.70
2023-05-05T12:27:36.735Z,2.30
2023-05-05T12:30:16.607Z,2.17
2023-05-05T12:32:45.786Z,1.75
2023-05-05T12:35:13.722Z,2.00
2023-05-05T12:37:41.632Z,2.33
2023-05-05T12:40:51.962Z,2.13
2023-05-05T12:43:35.321Z,1.75
2023-05-05T12:46:13.894Z,1.50
2023-05-05T12:48:47.960Z,2.13
2023-05-05T12:51:20.857Z,1.90
2023-05-05T12:53:55.869Z,2.30
2023-05-05T12:56:44.275Z,1.85
2023-05-05T12:59:24.107Z,1.70
2023-05-05T13:01:57.173Z,2.15
2023-05-05T13:04:28.832Z,2.40
2023-05-05T13:07:14.316Z,2.10
2023-05-05T13:09:42.100Z,1.88
2023-05-05T13:12:12.068Z,2.10
2023-05-05T13:14:40.745Z,2.00
2023-05-05T13:17:08.106Z,1.77
2023-05-05T13:19:41.647Z,2.00
2023-05-05T13:22:13.271Z,2.03
2023-05-05T13:27:20.378Z,1.70
2023-05-05T13:29:47.578Z,1.80
2023-05-05T13:32:14.612Z,2.30
2023-05-05T13:34:43.625Z,1.77
2023-05-05T13:37:10.685Z,1.75
2023-05-05T13:39:37.844Z,1.52
2023-05-05T13:42:05.051Z,1.67
2023-05-05T13:44:32.196Z,1.60
2023-05-05T13:46:59.367Z,1.70
2023-05-05T13:49:27.252Z,1.80
2023-05-05T13:51:55.276Z,1.50
2023-05-05T13:54:22.454Z,1.60
2023-05-05T13:56:49.520Z,1.67
2023-05-05T13:59:16.580Z,1.50
2023-05-05T14:01:43.840Z,1.48
2023-05-05T14:04:11.070Z,1.63
2023-05-05T14:06:38.269Z,1.40
2023-05-05T14:09:06.406Z,1.52
2023-05-05T14:11:33.790Z,1.33
2023-05-05T14:14:00.865Z,1.50
2023-05-05T14:16:27.979Z,1.33
2023-05-05T14:18:55.143Z,1.52
2023-05-05T14:21:22.181Z,1.48
2023-05-05T14:23:49.207Z,1.77
2023-05-05T14:26:16.334Z,1.55
2023-05-05T14:28:44.510Z,1.60
2023-05-05T14:31:12.116Z,1.45
2023-05-05T14:33:39.295Z,1.60
2023-05-05T14:36:06.900Z,1.63
2023-05-05T14:38:34.068Z,1.50
2023-05-05T14:41:01.430Z,1.50
2023-05-05T14:43:28.556Z,1.60
2023-05-05T14:45:55.990Z,1.50
2023-05-05T14:48:23.002Z,1.50
2023-05-05T14:50:50.187Z,1.58
2023-05-05T14:53:19.118Z,1.60
2023-05-05T14:55:46.325Z,1.38
2023-05-05T14:58:13.366Z,1.50
2023-05-05T15:00:40.523Z,1.30
2023-05-05T15:03:07.770Z,1.38
2023-05-05T15:05:35.659Z,1.30
2023-05-05T15:08:02.663Z,1.33
2023-05-05T15:10:29.708Z,1.40
2023-05-05T15:12:57.012Z,1.60
2023-05-05T15:15:24.147Z,1.35
2023-05-05T15:17:51.523Z,1.58
2023-05-05T15:20:18.669Z,1.50
2023-05-05T15:22:47.376Z,1.58
2023-05-05T15:25:15.872Z,1.30
2023-05-05T15:27:43.038Z,1.45
2023-05-05T15:30:11.890Z,1.33
2023-05-05T15:32:39.268Z,1.42
2023-05-05T15:35:07.236Z,1.35
2023-05-05T15:37:34.768Z,1.25
2023-05-05T15:40:01.878Z,1.35
2023-05-05T15:42:28.965Z,1.60
2023-05-05T15:44:56.188Z,1.50
2023-05-05T15:47:23.265Z,1.50
2023-05-05T15:49:50.431Z,1.30
2023-05-05T15:52:17.960Z,1.58
2023-05-05T15:54:45.024Z,1.30
2023-05-05T15:57:12.112Z,1.40
2023-05-05T15:59:39.192Z,1.55
2023-05-05T16:02:06.977Z,1.33
2023-05-05T16:04:34.159Z,1.25
2023-05-05T16:07:03.294Z,1.30
2023-05-05T16:09:30.517Z,1.30
2023-05-05T16:11:57.649Z,1.50
2023-05-05T16:14:24.816Z,1.73
2023-05-05T16:16:51.910Z,2.13
2023-05-05T16:19:19.093Z,2.05
2023-05-05T16:21:46.291Z,1.90
2023-05-05T16:24:16.512Z,1.75
2023-05-05T16:26:44.026Z,2.00
2023-05-05T16:29:11.652Z,2.10
2023-05-05T16:31:39.487Z,1.95
2023-05-05T16:34:07.256Z,2.03
2023-05-05T16:36:34.532Z,2.13
2023-05-05T16:39:01.791Z,1.80
2023-05-05T16:41:28.957Z,1.67
2023-05-05T16:43:56.412Z,1.90
2023-05-05T16:46:23.571Z,2.15
2023-05-05T16:48:50.745Z,1.88
2023-05-05T16:51:17.857Z,2.30
2023-05-05T16:53:45.277Z,2.17
2023-05-05T16:56:13.279Z,2.63
2023-05-05T16:58:41.026Z,2.28
2023-05-05T17:01:08.090Z,2.20
2023-05-05T17:03:35.123Z,2.40
2023-05-05T17:06:02.414Z,2.28
2023-05-05T17:08:29.485Z,2.22
2023-05-05T17:10:56.539Z,2.20
2023-05-05T17:13:23.717Z,2.45
2023-05-05T17:15:51.445Z,1.95
2023-05-05T17:18:21.204Z,2.20
2023-05-05T17:20:50.043Z,2.00
2023-05-05T17:23:17.102Z,2.35
2023-05-05T17:25:44.212Z,2.00
2023-05-05T17:28:11.264Z,2.08
2023-05-05T17:30:38.300Z,2.10
2023-05-05T17:33:05.596Z,2.10
2023-05-05T17:35:32.790Z,2.00
2023-05-05T17:37:59.890Z,1.98
2023-05-05T17:40:26.956Z,2.05
2023-05-05T17:42:53.959Z,2.28
2023-05-05T17:45:21.015Z,2.20
2023-05-05T17:47:48.044Z,2.05
2023-05-05T17:50:15.072Z,2.65
2023-05-05T17:52:43.897Z,2.13
2023-05-05T17:55:11.434Z,2.35
2023-05-05T17:57:38.882Z,2.80
2023-05-05T18:00:07.092Z,2.40
2023-05-05T18:02:37.286Z,2.45
2023-05-05T18:05:05.234Z,2.35
2023-05-05T18:07:33.681Z,2.17
2023-05-05T18:10:00.959Z,2.50
2023-05-05T18:12:28.057Z,2.58
2023-05-05T18:14:55.046Z,2.15
2023-05-05T18:17:22.053Z,2.83
2023-05-05T18:19:49.328Z,3.00
2023-05-05T18:22:16.505Z,2.60
2023-05-05T18:24:43.649Z,2.72
2023-05-05T18:27:10.706Z,2.88
2023-05-05T18:29:37.975Z,2.72
2023-05-05T18:32:06.470Z,3.25
2023-05-05T18:34:33.762Z,3.00
2023-05-05T18:37:00.897Z,2.58
2023-05-05T18:39:28.191Z,2.97
2023-05-05T18:41:55.261Z,3.17
2023-05-05T18:44:22.342Z,3.08
2023-05-05T18:46:49.410Z,2.92
2023-05-05T18:49:16.580Z,3.25
2023-05-05T18:51:44.067Z,2.72
2023-05-05T18:54:11.246Z,3.08
2023-05-05T18:56:38.289Z,2.58
2023-05-05T18:59:05.374Z,3.30
2023-05-05T19:01:32.955Z,3.00
2023-05-05T19:04:00.166Z,3.00
2023-05-05T19:06:27.409Z,3.28
2023-05-05T19:08:55.574Z,3.45
2023-05-05T19:11:23.255Z,3.70
2023-05-05T19:13:50.276Z,3.60
2023-05-05T19:16:18.210Z,3.47
2023-05-05T19:18:45.272Z,3.42
2023-05-05T19:21:12.318Z,3.53
2023-05-05T19:23:39.439Z,3.80
2023-05-05T19:26:07.072Z,3.78
2023-05-05T19:28:34.163Z,3.17
2023-05-05T19:31:01.449Z,3.30
2023-05-05T19:33:28.429Z,3.67
2023-05-05T19:35:55.754Z,3.70
2023-05-05T19:38:22.872Z,3.58
2023-05-05T19:40:50.495Z,3.55
2023-05-05T19:43:17.533Z,3.80
2023-05-05T19:45:44.580Z,3.17
2023-05-05T19:48:11.697Z,3.53
2023-05-05T19:50:38.821Z,3.97
2023-05-05T19:53:05.963Z,3.63
2023-05-05T19:55:33.289Z,3.78
2023-05-05T19:58:00.403Z,3.60
2023-05-05T20:00:27.527Z,3.97
2023-05-05T20:02:54.620Z,4.05
2023-05-05T20:05:21.852Z,4.25
2023-05-05T20:07:50.711Z,5.20
2023-05-05T20:10:18.003Z,3.97
2023-05-05T20:12:48.160Z,4.30
2023-05-05T20:15:18.952Z,4.25
2023-05-05T20:17:50.113Z,3.78
2023-05-05T20:20:22.674Z,3.63
2023-05-05T20:22:50.060Z,3.88
2023-05-05T20:25:17.566Z,4.00
2023-05-05T20:27:45.875Z,3.35
2023-05-05T20:30:13.585Z,3.58
2023-05-05T20:32:41.462Z,2.90
2023-05-05T20:35:09.473Z,3.38
2023-05-05T20:37:36.534Z,3.15
2023-05-05T20:40:03.869Z,3.95
2023-05-05T20:42:31.075Z,3.42
2023-05-05T20:44:59.611Z,2.45
2023-05-05T20:47:26.979Z,2.13
2023-05-05T20:49:54.356Z,1.70
2023-05-05T20:52:21.414Z,0.80
2023-05-05T20:54:48.446Z,0.93
2023-05-05T20:57:15.467Z,0.70
2023-05-05T20:59:42.512Z,0.98
2023-05-05T21:02:09.664Z,0.50
2023-05-05T21:04:36.725Z,0.68
2023-05-05T21:07:03.792Z,0.50
2023-05-05T21:09:31.696Z,0.63
2023-05-05T21:11:58.893Z,0.90
2023-05-05T21:14:26.073Z,0.45
2023-05-05T21:16:53.181Z,0.65
2023-05-05T21:19:20.376Z,0.60
2023-05-05T21:21:48.051Z,0.40
2023-05-05T21:24:15.306Z,0.40
2023-05-05T21:26:45.579Z,0.38
2023-05-05T21:29:12.670Z,0.57
2023-05-05T21:31:39.776Z,0.25
2023-05-05T21:34:06.906Z,0.50
2023-05-05T21:36:34.166Z,0.60
2023-05-05T21:39:01.360Z,0.30
2023-05-05T21:41:28.672Z,0.60
2023-05-05T21:43:55.953Z,0.52
2023-05-05T21:46:23.105Z,0.50
2023-05-05T21:48:50.336Z,0.60
2023-05-05T21:51:17.592Z,0.40
2023-05-05T21:53:44.724Z,0.50
2023-05-05T21:56:11.837Z,0.47
2023-05-05T21:58:39.092Z,0.60
2023-05-05T22:01:06.232Z,0.55
2023-05-05T22:03:35.330Z,0.50
2023-05-05T22:06:02.714Z,0.35
2023-05-05T22:08:29.709Z,0.38
2023-05-05T22:10:56.754Z,0.40
2023-05-05T22:13:23.827Z,0.40
2023-05-05T22:15:50.962Z,0.73
2023-05-05T22:18:18.016Z,0.52
2023-05-05T22:20:45.130Z,0.60
2023-05-05T22:23:14.085Z,0.55
2023-05-05T22:25:41.264Z,0.60
2023-05-05T22:28:08.464Z,0.60
2023-05-05T22:30:35.737Z,0.50
2023-05-05T22:33:02.939Z,0.60
2023-05-05T22:35:30.164Z,0.88
2023-05-05T22:37:57.323Z,0.50
2023-05-05T22:40:24.388Z,0.90
2023-05-05T22:42:51.490Z,0.70
2023-05-05T22:45:18.604Z,0.70
2023-05-05T22:47:45.827Z,0.70
2023-05-05T22:50:12.925Z,0.50
2023-05-05T22:52:39.961Z,0.52
2023-05-05T22:55:07.956Z,0.40
2023-05-05T22:57:36.298Z,0.60
2023-05-05T23:00:05.352Z,0.55
2023-05-05T23:02:32.629Z,0.50
2023-05-05T23:04:59.685Z,0.43
2023-05-05T23:07:26.881Z,0.57
2023-05-05T23:09:54.045Z,0.60
2023-05-05T23:12:21.295Z,0.60
2023-05-05T23:14:50.085Z,0.40
2023-05-05T23:17:17.165Z,0.50
2023-05-05T23:19:48.172Z,0.40
2023-05-05T23:22:15.731Z,0.57
2023-05-05T23:24:42.851Z,0.70
2023-05-05T23:27:09.904Z,0.70
2023-05-05T23:29:36.925Z,0.55
2023-05-05T23:32:04.078Z,0.50
2023-05-05T23:34:31.112Z,0.52
2023-05-05T23:36:58.153Z,0.55
2023-05-05T23:39:25.319Z,0.70
2023-05-05T23:41:52.433Z,0.60
2023-05-05T23:44:19.488Z,0.50
2023-05-05T23:46:46.599Z,0.50
2023-05-05T23:49:13.634Z,0.60
2023-05-05T23:51:40.688Z,0.73
2023-05-05T23:54:07.825Z,0.80
2023-05-05T23:56:34.899Z,0.60
2023-05-05T23:59:01.947Z,0.70
